RJSD(METAR)
10/07 23:00
METAR RJSD 071400Z AUTO 02003KT 310V080 9999 NSC 15/10 Q1024 RMK
A3026=
戻る
トップページへ戻る
IMOC Co,.Ltd.